Time,TemperatureF,DewpointF,PressureIn,WindDirection,WindDirectionDegrees,WindSpeedMPH,WindSpeedGustMPH,Humidity,HourlyPrecipIn,Conditions,Clouds,dailyrainin,SoftwareType,DateUTC
2013-01-10 00:00:00,49.1,30.7,30.27,WNW,284,6.0,13.0,49,0.00,,,0.00,Wunderground v.1.13,2013-01-10 05:00:00,
2013-01-10 00:05:00,49.2,30.8,30.27,West,277,7.0,7.0,49,0.00,,,0.00,Wunderground v.1.13,2013-01-10 05:05:00,
2013-01-10 00:10:00,49.1,30.7,30.27,West,279,7.0,7.0,49,0.00,,,0.00,Wunderground v.1.13,2013-01-10 05:10:00,
2013-01-10 00:15:00,48.9,30.6,30.28,West,274,6.0,6.0,49,0.00,,,0.00,Wunderground v.1.13,2013-01-10 05:15:00,
2013-01-10 00:25:00,48.8,30.5,30.28,West,279,6.0,14.0,49,0.00,,,0.00,Wunderground v.1.13,2013-01-10 05:25:00,
2013-01-10 00:35:00,48.5,30.2,30.28,West,267,5.0,15.0,49,0.00,,,0.00,Wunderground v.1.13,2013-01-10 05:35:00,
2013-01-10 00:40:00,48.5,30.2,30.29,SW,227,5.0,5.0,49,0.00,,,0.00,Wunderground v.1.13,2013-01-10 05:40:00,
2013-01-10 00:50:00,48.5,29.7,30.30,NW,312,6.0,13.0,48,0.00,,,0.00,Wunderground v.1.13,2013-01-10 05:50:00,
2013-01-10 01:00:00,48.2,29.4,30.30,West,278,6.0,6.0,48,0.00,,,0.00,Wunderground v.1.13,2013-01-10 06:00:00,
2013-01-10 01:05:00,48.2,29.4,30.30,West,281,6.0,15.0,48,0.00,,,0.00,Wunderground v.1.13,2013-01-10 06:05:00,
2013-01-10 01:15:00,47.9,29.1,30.30,West,281,6.0,6.0,48,0.00,,,0.00,Wunderground v.1.13,2013-01-10 06:15:00,
2013-01-10 01:25:00,47.7,28.9,30.31,SW,232,6.0,6.0,48,0.00,,,0.00,Wunderground v.1.13,2013-01-10 06:25:00,
2013-01-10 01:30:00,47.6,28.9,30.31,SW,229,6.0,18.0,48,0.00,,,0.00,Wunderground v.1.13,2013-01-10 06:30:00,
2013-01-10 01:40:00,47.3,28.6,30.32,WNW,289,5.0,5.0,48,0.00,,,0.00,Wunderground v.1.13,2013-01-10 06:40:00,
2013-01-10 01:50:00,47.4,28.2,30.32,WNW,295,7.0,7.0,47,0.00,,,0.00,Wunderground v.1.13,2013-01-10 06:50:00,
2013-01-10 02:00:00,47.1,27.9,30.32,WNW,297,6.0,14.0,47,0.00,,,0.00,Wunderground v.1.13,2013-01-10 07:00:00,
2013-01-10 02:10:00,47.0,27.3,30.33,WNW,290,6.0,16.0,46,0.00,,,0.00,Wunderground v.1.13,2013-01-10 07:10:00,
2013-01-10 02:15:00,46.8,27.1,30.33,West,277,6.0,16.0,46,0.00,,,0.00,Wunderground v.1.13,2013-01-10 07:15:00,
2013-01-10 02:25:00,46.5,27.3,30.34,WNW,286,5.0,18.0,47,0.00,,,0.00,Wunderground v.1.13,2013-01-10 07:25:00,
2013-01-10 02:35:00,46.4,25.6,30.34,West,265,6.0,6.0,44,0.00,,,0.00,Wunderground v.1.13,2013-01-10 07:35:00,
2013-01-10 02:40:00,46.4,27.2,30.34,West,268,6.0,11.0,47,0.00,,,0.00,Wunderground v.1.13,2013-01-10 07:40:00,
2013-01-10 02:50:00,46.1,27.0,30.34,West,268,5.0,5.0,47,0.00,,,0.00,Wunderground v.1.13,2013-01-10 07:50:00,
2013-01-10 02:55:00,46.0,26.9,30.34,WNW,299,5.0,18.0,47,0.00,,,0.00,Wunderground v.1.13,2013-01-10 07:55:00,
2013-01-10 03:00:00,46.0,26.9,30.34,WNW,287,5.0,5.0,47,0.00,,,0.00,Wunderground v.1.13,2013-01-10 08:00:00,
2013-01-10 03:10:00,45.8,26.7,30.34,West,268,5.0,5.0,47,0.00,,,0.00,Wunderground v.1.13,2013-01-10 08:10:00,
2013-01-10 03:15:00,45.7,26.6,30.34,WNW,287,6.0,12.0,47,0.00,,,0.00,Wunderground v.1.13,2013-01-10 08:15:00,
2013-01-10 03:25:00,45.7,26.6,30.35,WNW,290,7.0,21.0,47,0.00,,,0.00,Wunderground v.1.13,2013-01-10 08:25:00,
2013-01-10 03:35:00,45.4,26.3,30.35,West,269,6.0,6.0,47,0.00,,,0.00,Wunderground v.1.13,2013-01-10 08:35:00,
2013-01-10 03:40:00,45.2,26.1,30.35,WNW,283,5.0,5.0,47,0.00,,,0.00,Wunderground v.1.13,2013-01-10 08:40:00,
2013-01-10 03:50:00,45.1,26.1,30.36,West,271,5.0,5.0,47,0.00,,,0.00,Wunderground v.1.13,2013-01-10 08:50:00,
2013-01-10 03:55:00,45.1,26.1,30.35,West,268,5.0,5.0,47,0.00,,,0.00,Wunderground v.1.13,2013-01-10 08:55:00,
2013-01-10 04:05:00,44.8,24.7,30.36,West,273,5.0,12.0,45,0.00,,,0.00,Wunderground v.1.13,2013-01-10 09:05:00,
2013-01-10 04:10:00,44.6,26.1,30.36,West,279,5.0,12.0,48,0.00,,,0.00,Wunderground v.1.13,2013-01-10 09:10:00,
2013-01-10 04:15:00,44.6,26.1,30.36,WNW,293,5.0,5.0,48,0.00,,,0.00,Wunderground v.1.13,2013-01-10 09:15:00,
2013-01-10 04:25:00,44.3,25.8,30.36,WNW,288,4.0,4.0,48,0.00,,,0.00,Wunderground v.1.13,2013-01-10 09:25:00,
2013-01-10 04:35:00,44.1,26.1,30.37,West,260,3.0,9.0,49,0.00,,,0.00,Wunderground v.1.13,2013-01-10 09:35:00,
2013-01-10 04:40:00,44.2,25.7,30.37,WNW,298,4.0,9.0,48,0.00,,,0.00,Wunderground v.1.13,2013-01-10 09:40:00,
2013-01-10 04:50:00,43.8,25.9,30.37,WNW,286,4.0,11.0,49,0.00,,,0.00,Wunderground v.1.13,2013-01-10 09:50:00,
2013-01-10 04:55:00,43.8,25.9,30.37,West,275,5.0,11.0,49,0.00,,,0.00,Wunderground v.1.13,2013-01-10 09:55:00,
2013-01-10 05:00:00,43.6,25.7,30.37,NW,309,5.0,11.0,49,0.00,,,0.00,Wunderground v.1.13,2013-01-10 10:00:00,
2013-01-10 05:10:00,43.2,25.8,30.37,WNW,290,4.0,14.0,50,0.00,,,0.00,Wunderground v.1.13,2013-01-10 10:10:00,
2013-01-10 05:20:00,43.1,25.7,30.38,NW,317,4.0,4.0,50,0.00,,,0.00,Wunderground v.1.13,2013-01-10 10:20:00,
2013-01-10 05:25:00,42.9,26.0,30.39,NW,317,2.0,2.0,51,0.00,,,0.00,Wunderground v.1.13,2013-01-10 10:25:00,
2013-01-10 05:35:00,42.6,25.7,30.40,NW,311,3.0,6.0,51,0.00,,,0.00,Wunderground v.1.13,2013-01-10 10:35:00,
2013-01-10 05:45:00,42.1,25.7,30.40,WNW,302,2.0,6.0,52,0.00,,,0.00,Wunderground v.1.13,2013-01-10 10:45:00,
2013-01-10 05:50:00,42.1,25.7,30.40,NW,311,3.0,7.0,52,0.00,,,0.00,Wunderground v.1.13,2013-01-10 10:50:00,
2013-01-10 06:00:00,42.2,25.3,30.41,WNW,286,6.0,6.0,51,0.00,,,0.00,Wunderground v.1.13,2013-01-10 11:00:00,
2013-01-10 06:10:00,41.9,25.5,30.41,West,279,4.0,4.0,52,0.00,,,0.00,Wunderground v.1.13,2013-01-10 11:10:00,
2013-01-10 06:15:00,41.8,25.4,30.41,WNW,283,4.0,4.0,52,0.00,,,0.00,Wunderground v.1.13,2013-01-10 11:15:00,
2013-01-10 06:25:00,41.3,25.4,30.42,WNW,294,3.0,10.0,53,0.00,,,0.00,Wunderground v.1.13,2013-01-10 11:25:00,
2013-01-10 06:35:00,40.9,25.5,30.43,West,281,1.0,1.0,54,0.00,,,0.00,Wunderground v.1.13,2013-01-10 11:35:00,
2013-01-10 06:45:00,40.3,25.4,30.44,West,281,0.0,7.0,55,0.00,,,0.00,Wunderground v.1.13,2013-01-10 11:45:00,
2013-01-10 06:55:00,39.2,25.2,30.44,NW,307,1.0,2.0,57,0.00,,,0.00,Wunderground v.1.13,2013-01-10 11:55:00,
2013-01-10 07:00:00,38.9,25.4,30.44,NW,307,1.0,1.0,58,0.00,,,0.00,Wunderground v.1.13,2013-01-10 12:00:00,
2013-01-10 07:10:00,38.8,25.3,30.45,NW,307,1.0,1.0,58,0.00,,,0.00,Wunderground v.1.13,2013-01-10 12:10:00,
2013-01-10 07:20:00,38.8,25.3,30.45,NW,307,0.0,3.0,58,0.00,,,0.00,Wunderground v.1.13,2013-01-10 12:20:00,
2013-01-10 07:30:00,37.6,25.4,30.46,NW,307,0.0,3.0,61,0.00,,,0.00,Wunderground v.1.13,2013-01-10 12:30:00,
2013-01-10 07:35:00,37.0,25.2,30.47,NW,307,0.0,0.0,62,0.00,,,0.00,Wunderground v.1.13,2013-01-10 12:35:00,
2013-01-10 07:45:00,36.0,25.0,30.48,NW,307,0.0,0.0,64,0.00,,,0.00,Wunderground v.1.13,2013-01-10 12:45:00,
2013-01-10 07:50:00,35.8,25.5,30.48,NW,307,0.0,2.0,66,0.00,,,0.00,Wunderground v.1.13,2013-01-10 12:50:00,
2013-01-10 08:00:00,36.5,25.8,30.48,NW,307,1.0,2.0,65,0.00,,,0.00,Wunderground v.1.13,2013-01-10 13:00:00,
2013-01-10 08:05:00,37.5,26.0,30.48,NW,307,1.0,1.0,63,0.00,,,0.00,Wunderground v.1.13,2013-01-10 13:05:00,
2013-01-10 08:15:00,39.2,26.1,30.49,NW,307,1.0,1.0,59,0.00,,,0.00,Wunderground v.1.13,2013-01-10 13:15:00,
2013-01-10 08:20:00,39.8,26.2,30.49,NW,307,1.0,3.0,58,0.00,,,0.00,Wunderground v.1.13,2013-01-10 13:20:00,
2013-01-10 08:25:00,40.1,26.1,30.49,NW,307,1.0,3.0,57,0.00,,,0.00,Wunderground v.1.13,2013-01-10 13:25:00,
2013-01-10 08:35:00,40.9,26.4,30.49,WNW,302,1.0,3.0,56,0.00,,,0.00,Wunderground v.1.13,2013-01-10 13:35:00,
2013-01-10 08:45:00,41.6,26.2,30.50,West,281,4.0,4.0,54,0.00,,,0.00,Wunderground v.1.13,2013-01-10 13:45:00,
2013-01-10 08:50:00,41.9,26.0,30.50,WNW,292,3.0,11.0,53,0.00,,,0.00,Wunderground v.1.13,2013-01-10 13:50:00,
2013-01-10 08:55:00,42.1,26.2,30.50,WNW,284,2.0,11.0,53,0.00,,,0.00,Wunderground v.1.13,2013-01-10 13:55:00,
2013-01-10 09:05:00,42.5,26.1,30.50,WNW,299,4.0,10.0,52,0.00,,,0.00,Wunderground v.1.13,2013-01-10 14:05:00,
2013-01-10 09:10:00,42.8,25.9,30.50,North,350,4.0,10.0,51,0.00,,,0.00,Wunderground v.1.13,2013-01-10 14:10:00,
2013-01-10 09:20:00,43.3,25.4,30.51,WNW,286,5.0,5.0,49,0.00,,,0.00,Wunderground v.1.13,2013-01-10 14:20:00,
2013-01-10 09:25:00,43.6,25.7,30.50,WNW,286,5.0,12.0,49,0.00,,,0.00,Wunderground v.1.13,2013-01-10 14:25:00,
2013-01-10 09:35:00,43.9,25.5,30.50,West,277,7.0,13.0,48,0.00,,,0.00,Wunderground v.1.13,2013-01-10 14:35:00,
2013-01-10 09:40:00,43.9,25.5,30.50,NW,304,7.0,13.0,48,0.00,,,0.00,Wunderground v.1.13,2013-01-10 14:40:00,
2013-01-10 09:50:00,44.1,25.1,30.50,West,281,7.0,18.0,47,0.00,,,0.00,Wunderground v.1.13,2013-01-10 14:50:00,
2013-01-10 09:55:00,44.2,25.2,30.51,WNW,284,7.0,18.0,47,0.00,,,0.00,Wunderground v.1.13,2013-01-10 14:55:00,
2013-01-10 10:05:00,44.6,24.5,30.50,WNW,284,7.0,7.0,45,0.00,,,0.00,Wunderground v.1.13,2013-01-10 15:05:00,
2013-01-10 10:10:00,44.6,24.5,30.51,NNE,26,7.0,7.0,45,0.00,,,0.00,Wunderground v.1.13,2013-01-10 15:10:00,
2013-01-10 10:20:00,45.1,24.5,30.50,NW,304,7.0,7.0,44,0.00,,,0.00,Wunderground v.1.13,2013-01-10 15:20:00,
2013-01-10 10:25:00,45.1,24.5,30.50,West,275,8.0,8.0,44,0.00,,,0.00,Wunderground v.1.13,2013-01-10 15:25:00,
2013-01-10 10:35:00,45.2,24.6,30.50,NNW,327,7.0,7.0,44,0.00,,,0.00,Wunderground v.1.13,2013-01-10 15:35:00,
2013-01-10 10:40:00,45.7,25.0,30.50,West,279,7.0,7.0,44,0.00,,,0.00,Wunderground v.1.13,2013-01-10 15:40:00,
2013-01-10 10:45:00,45.7,24.5,30.50,North,360,7.0,15.0,43,0.00,,,0.00,Wunderground v.1.13,2013-01-10 15:45:00,
2013-01-10 10:55:00,46.0,24.7,30.49,NW,321,7.0,7.0,43,0.00,,,0.00,Wunderground v.1.13,2013-01-10 15:55:00,
2013-01-10 11:00:00,46.2,24.3,30.49,West,275,5.0,14.0,42,0.00,,,0.00,Wunderground v.1.13,2013-01-10 16:00:00,
2013-01-10 11:10:00,46.4,24.5,30.49,WNW,292,6.0,6.0,42,0.00,,,0.00,Wunderground v.1.13,2013-01-10 16:10:00,
2013-01-10 11:20:00,46.5,23.4,30.49,NW,313,7.0,7.0,40,0.00,,,0.00,Wunderground v.1.13,2013-01-10 16:20:00,
2013-01-10 11:25:00,46.8,23.7,30.48,West,277,7.0,7.0,40,0.00,,,0.00,Wunderground v.1.13,2013-01-10 16:25:00,
2013-01-10 11:35:00,46.7,23.0,30.48,North,351,8.0,8.0,39,0.00,,,0.00,Wunderground v.1.13,2013-01-10 16:35:00,
2013-01-10 11:45:00,46.8,23.1,30.47,NW,304,9.0,14.0,39,0.00,,,0.00,Wunderground v.1.13,2013-01-10 16:45:00,
2013-01-10 11:50:00,47.3,23.6,30.47,NW,323,7.0,7.0,39,0.00,,,0.00,Wunderground v.1.13,2013-01-10 16:50:00,
2013-01-10 12:00:00,47.7,22.7,30.47,WNW,283,6.0,6.0,37,0.00,,,0.00,Wunderground v.1.13,2013-01-10 17:00:00,
2013-01-10 12:05:00,47.7,23.3,30.47,SW,227,5.0,15.0,38,0.00,,,0.00,Wunderground v.1.13,2013-01-10 17:05:00,
2013-01-10 12:15:00,48.0,22.9,30.47,WNW,283,7.0,15.0,37,0.00,,,0.00,Wunderground v.1.13,2013-01-10 17:15:00,
2013-01-10 12:25:00,47.9,22.8,30.47,WNW,298,8.0,8.0,37,0.00,,,0.00,Wunderground v.1.13,2013-01-10 17:25:00,
2013-01-10 12:35:00,48.2,22.5,30.47,NW,305,7.0,7.0,36,0.00,,,0.00,Wunderground v.1.13,2013-01-10 17:35:00,
2013-01-10 12:40:00,48.6,22.1,30.46,West,280,7.0,7.0,35,0.00,,,0.00,Wunderground v.1.13,2013-01-10 17:40:00,
2013-01-10 12:50:00,48.9,22.4,30.46,North,360,7.0,7.0,35,0.00,,,0.00,Wunderground v.1.13,2013-01-10 17:50:00,
2013-01-10 12:55:00,48.8,22.3,30.47,West,280,6.0,18.0,35,0.00,,,0.00,Wunderground v.1.13,2013-01-10 17:55:00,
2013-01-10 13:05:00,49.1,21.9,30.46,NW,305,5.0,11.0,34,0.00,,,0.00,Wunderground v.1.13,2013-01-10 18:05:00,
2013-01-10 13:15:00,49.2,23.4,30.47,NW,312,6.0,11.0,36,0.00,,,0.00,Wunderground v.1.13,2013-01-10 18:15:00,
2013-01-10 13:25:00,49.2,22.7,30.47,WNW,298,6.0,6.0,35,0.00,,,0.00,Wunderground v.1.13,2013-01-10 18:25:00,
2013-01-10 13:30:00,49.5,23.6,30.46,NW,318,4.0,14.0,36,0.00,,,0.00,Wunderground v.1.13,2013-01-10 18:30:00,
2013-01-10 13:35:00,49.2,23.4,30.46,NW,319,5.0,13.0,36,0.00,,,0.00,Wunderground v.1.13,2013-01-10 18:35:00,
2013-01-10 13:45:00,48.9,23.7,30.47,WSW,252,5.0,13.0,37,0.00,,,0.00,Wunderground v.1.13,2013-01-10 18:45:00,
2013-01-10 13:55:00,49.2,24.0,30.47,WSW,254,6.0,6.0,37,0.00,,,0.00,Wunderground v.1.13,2013-01-10 18:55:00,
2013-01-10 14:05:00,49.4,23.5,30.48,WNW,288,5.0,15.0,36,0.00,,,0.00,Wunderground v.1.13,2013-01-10 19:05:00,
2013-01-10 14:10:00,49.5,22.9,30.48,West,270,5.0,15.0,35,0.00,,,0.00,Wunderground v.1.13,2013-01-10 19:10:00,
2013-01-10 14:20:00,49.5,22.3,30.47,WNW,290,6.0,6.0,34,0.00,,,0.00,Wunderground v.1.13,2013-01-10 19:20:00,
2013-01-10 14:25:00,49.5,22.3,30.48,West,267,5.0,13.0,34,0.00,,,0.00,Wunderground v.1.13,2013-01-10 19:25:00,
2013-01-10 14:35:00,49.2,22.0,30.48,West,271,6.0,14.0,34,0.00,,,0.00,Wunderground v.1.13,2013-01-10 19:35:00,
2013-01-10 14:45:00,49.5,22.3,30.48,NW,323,6.0,6.0,34,0.00,,,0.00,Wunderground v.1.13,2013-01-10 19:45:00,
2013-01-10 14:50:00,49.5,22.3,30.48,WNW,302,5.0,15.0,34,0.00,,,0.00,Wunderground v.1.13,2013-01-10 19:50:00,
2013-01-10 14:55:00,49.5,22.9,30.48,SW,233,6.0,6.0,35,0.00,,,0.00,Wunderground v.1.13,2013-01-10 19:55:00,
2013-01-10 15:05:00,49.5,22.9,30.48,WNW,296,5.0,5.0,35,0.00,,,0.00,Wunderground v.1.13,2013-01-10 20:05:00,
2013-01-10 15:15:00,49.5,22.9,30.49,West,259,5.0,5.0,35,0.00,,,0.00,Wunderground v.1.13,2013-01-10 20:15:00,
2013-01-10 15:20:00,49.5,22.9,30.49,WNW,290,4.0,13.0,35,0.00,,,0.00,Wunderground v.1.13,2013-01-10 20:20:00,
2013-01-10 15:25:00,49.5,22.9,30.49,SW,236,5.0,5.0,35,0.00,,,0.00,Wunderground v.1.13,2013-01-10 20:25:00,
2013-01-10 15:30:00,49.4,22.9,30.49,NW,305,5.0,13.0,35,0.00,,,0.00,Wunderground v.1.13,2013-01-10 20:30:00,
2013-01-10 15:40:00,49.2,22.7,30.49,NW,322,5.0,5.0,35,0.00,,,0.00,Wunderground v.1.13,2013-01-10 20:40:00,
2013-01-10 15:50:00,49.2,23.4,30.50,NNW,339,5.0,5.0,36,0.00,,,0.00,Wunderground v.1.13,2013-01-10 20:50:00,
2013-01-10 16:00:00,49.1,23.9,30.50,West,279,3.0,10.0,37,0.00,,,0.00,Wunderground v.1.13,2013-01-10 21:00:00,
2013-01-10 16:10:00,48.8,23.6,30.50,West,281,4.0,12.0,37,0.00,,,0.00,Wunderground v.1.13,2013-01-10 21:10:00,
2013-01-10 16:15:00,48.6,23.5,30.50,SW,232,4.0,4.0,37,0.00,,,0.00,Wunderground v.1.13,2013-01-10 21:15:00,
2013-01-10 16:20:00,48.5,23.4,30.50,West,263,4.0,9.0,37,0.00,,,0.00,Wunderground v.1.13,2013-01-10 21:20:00,
2013-01-10 16:30:00,47.9,23.5,30.50,NW,304,3.0,9.0,38,0.00,,,0.00,Wunderground v.1.13,2013-01-10 21:30:00,
2013-01-10 16:40:00,47.6,23.2,30.50,WNW,290,3.0,3.0,38,0.00,,,0.00,Wunderground v.1.13,2013-01-10 21:40:00,
2013-01-10 16:45:00,47.3,23.6,30.50,WNW,290,1.0,1.0,39,0.00,,,0.00,Wunderground v.1.13,2013-01-10 21:45:00,
2013-01-10 16:55:00,46.7,23.6,30.51,WNW,295,1.0,1.0,40,0.00,,,0.00,Wunderground v.1.13,2013-01-10 21:55:00,
2013-01-10 17:00:00,46.5,23.4,30.51,WNW,295,1.0,1.0,40,0.00,,,0.00,Wunderground v.1.13,2013-01-10 22:00:00,
2013-01-10 17:10:00,45.7,23.9,30.51,WNW,295,0.0,4.0,42,0.00,,,0.00,Wunderground v.1.13,2013-01-10 22:10:00,
2013-01-10 17:20:00,44.8,24.2,30.51,WNW,294,1.0,1.0,44,0.00,,,0.00,Wunderground v.1.13,2013-01-10 22:20:00,
2013-01-10 17:25:00,44.3,24.8,30.51,WNW,294,0.0,5.0,46,0.00,,,0.00,Wunderground v.1.13,2013-01-10 22:25:00,
2013-01-10 17:30:00,43.6,24.2,30.51,WNW,294,0.0,5.0,46,0.00,,,0.00,Wunderground v.1.13,2013-01-10 22:30:00,
2013-01-10 17:40:00,42.6,24.8,30.52,WNW,294,0.0,3.0,49,0.00,,,0.00,Wunderground v.1.13,2013-01-10 22:40:00,
2013-01-10 17:50:00,41.8,25.0,30.52,WNW,294,0.0,1.0,51,0.00,,,0.00,Wunderground v.1.13,2013-01-10 22:50:00,
2013-01-10 18:00:00,40.6,25.2,30.52,WNW,294,0.0,1.0,54,0.00,,,0.00,Wunderground v.1.13,2013-01-10 23:00:00,
2013-01-10 18:10:00,39.6,25.6,30.52,WNW,294,0.0,2.0,57,0.00,,,0.00,Wunderground v.1.13,2013-01-10 23:10:00,
2013-01-10 18:15:00,39.5,25.1,30.52,WNW,294,0.0,2.0,56,0.00,,,0.00,Wunderground v.1.13,2013-01-10 23:15:00,
2013-01-10 18:25:00,38.8,25.3,30.53,WNW,294,0.0,2.0,58,0.00,,,0.00,Wunderground v.1.13,2013-01-10 23:25:00,
2013-01-10 18:35:00,38.5,25.8,30.53,WNW,294,0.0,1.0,60,0.00,,,0.00,Wunderground v.1.13,2013-01-10 23:35:00,
2013-01-10 18:40:00,38.2,25.5,30.53,WNW,294,0.0,1.0,60,0.00,,,0.00,Wunderground v.1.13,2013-01-10 23:40:00,
2013-01-10 18:50:00,37.6,25.4,30.53,WNW,294,0.0,1.0,61,0.00,,,0.00,Wunderground v.1.13,2013-01-10 23:50:00,
2013-01-10 18:55:00,37.3,25.1,30.53,WNW,294,0.0,1.0,61,0.00,,,0.00,Wunderground v.1.13,2013-01-10 23:55:00,
2013-01-10 19:00:00,37.0,25.2,30.53,WNW,294,0.0,2.0,62,0.00,,,0.00,Wunderground v.1.13,2013-01-11 00:00:00,
2013-01-10 19:10:00,36.9,25.1,30.52,WNW,294,0.0,2.0,62,0.00,,,0.00,Wunderground v.1.13,2013-01-11 00:10:00,
2013-01-10 19:15:00,36.6,25.2,30.53,WNW,294,0.0,2.0,63,0.00,,,0.00,Wunderground v.1.13,2013-01-11 00:15:00,
2013-01-10 19:25:00,36.2,25.6,30.52,WNW,294,0.0,1.0,65,0.00,,,0.00,Wunderground v.1.13,2013-01-11 00:25:00,
2013-01-10 19:35:00,36.3,25.7,30.51,NW,306,1.0,2.0,65,0.00,,,0.00,Wunderground v.1.13,2013-01-11 00:35:00,
2013-01-10 19:40:00,37.3,25.1,30.52,NW,306,1.0,1.0,61,0.00,,,0.00,Wunderground v.1.13,2013-01-11 00:40:00,
2013-01-10 19:50:00,37.6,25.7,30.52,NW,306,0.0,4.0,62,0.00,,,0.00,Wunderground v.1.13,2013-01-11 00:50:00,
2013-01-10 20:00:00,37.6,26.1,30.53,NW,306,0.0,4.0,63,0.00,,,0.00,Wunderground v.1.13,2013-01-11 01:00:00,
2013-01-10 20:10:00,37.6,25.7,30.53,NW,306,1.0,1.0,62,0.00,,,0.00,Wunderground v.1.13,2013-01-11 01:10:00,
2013-01-10 20:15:00,37.5,26.0,30.53,NW,306,1.0,1.0,63,0.00,,,0.00,Wunderground v.1.13,2013-01-11 01:15:00,
2013-01-10 20:25:00,37.9,25.2,30.52,NW,306,0.0,3.0,60,0.00,,,0.00,Wunderground v.1.13,2013-01-11 01:25:00,
2013-01-10 20:30:00,38.2,25.5,30.53,NW,306,0.0,3.0,60,0.00,,,0.00,Wunderground v.1.13,2013-01-11 01:30:00,
2013-01-10 20:40:00,38.3,25.6,30.53,NW,306,1.0,1.0,60,0.00,,,0.00,Wunderground v.1.13,2013-01-11 01:40:00,
2013-01-10 20:50:00,38.8,25.7,30.54,NW,306,1.0,1.0,59,0.00,,,0.00,Wunderground v.1.13,2013-01-11 01:50:00,
2013-01-10 20:55:00,39.1,25.6,30.54,NW,306,1.0,1.0,58,0.00,,,0.00,Wunderground v.1.13,2013-01-11 01:55:00,
2013-01-10 21:05:00,38.6,26.3,30.54,NW,306,0.0,3.0,61,0.00,,,0.00,Wunderground v.1.13,2013-01-11 02:05:00,
2013-01-10 21:15:00,38.2,26.3,30.53,NW,306,0.0,3.0,62,0.00,,,0.00,Wunderground v.1.13,2013-01-11 02:15:00,
2013-01-10 21:25:00,37.8,26.3,30.52,NW,306,0.0,0.0,63,0.00,,,0.00,Wunderground v.1.13,2013-01-11 02:25:00,
2013-01-10 21:30:00,37.6,26.9,30.52,NW,306,0.0,0.0,65,0.00,,,0.00,Wunderground v.1.13,2013-01-11 02:30:00,
2013-01-10 21:40:00,37.6,26.5,30.53,NW,306,0.0,1.0,64,0.00,,,0.00,Wunderground v.1.13,2013-01-11 02:40:00,
2013-01-10 21:50:00,38.0,26.5,30.53,NW,306,0.0,2.0,63,0.00,,,0.00,Wunderground v.1.13,2013-01-11 02:50:00,
2013-01-10 22:00:00,38.0,26.1,30.53,NW,306,1.0,1.0,62,0.00,,,0.00,Wunderground v.1.13,2013-01-11 03:00:00,
2013-01-10 22:10:00,37.8,26.7,30.53,NW,306,0.0,3.0,64,0.00,,,0.00,Wunderground v.1.13,2013-01-11 03:10:00,
2013-01-10 22:20:00,37.3,26.2,30.53,NW,306,0.0,2.0,64,0.00,,,0.00,Wunderground v.1.13,2013-01-11 03:20:00,
2013-01-10 22:25:00,37.2,26.5,30.53,NW,306,0.0,2.0,65,0.00,,,0.00,Wunderground v.1.13,2013-01-11 03:25:00,
2013-01-10 22:35:00,37.2,26.1,30.54,NW,306,0.0,2.0,64,0.00,,,0.00,Wunderground v.1.13,2013-01-11 03:35:00,
2013-01-10 22:45:00,37.0,26.3,30.53,NW,306,0.0,2.0,65,0.00,,,0.00,Wunderground v.1.13,2013-01-11 03:45:00,
2013-01-10 22:50:00,37.0,26.3,30.54,NW,306,0.0,1.0,65,0.00,,,0.00,Wunderground v.1.13,2013-01-11 03:50:00,
2013-01-10 23:00:00,36.8,26.1,30.53,NW,306,0.0,1.0,65,0.00,,,0.00,Wunderground v.1.13,2013-01-11 04:00:00,
2013-01-10 23:05:00,36.6,26.3,30.54,NW,306,0.0,2.0,66,0.00,,,0.00,Wunderground v.1.13,2013-01-11 04:05:00,
2013-01-10 23:15:00,36.2,25.9,30.54,NW,306,0.0,2.0,66,0.00,,,0.00,Wunderground v.1.13,2013-01-11 04:15:00,
2013-01-10 23:20:00,36.0,26.1,30.54,NW,306,0.0,1.0,67,0.00,,,0.00,Wunderground v.1.13,2013-01-11 04:20:00,
2013-01-10 23:30:00,36.0,26.1,30.54,NW,306,0.0,1.0,67,0.00,,,0.00,Wunderground v.1.13,2013-01-11 04:30:00,
2013-01-10 23:40:00,36.2,26.6,30.54,NW,306,0.0,1.0,68,0.00,,,0.00,Wunderground v.1.13,2013-01-11 04:40:00,
2013-01-10 23:50:00,36.5,26.2,30.55,NW,306,0.0,2.0,66,0.00,,,0.00,Wunderground v.1.13,2013-01-11 04:50:00,
2013-01-10 23:55:00,36.6,26.3,30.54,NW,306,0.0,2.0,66,0.00,,,0.00,Wunderground v.1.13,2013-01-11 04:55:00,